MSC Vega — D5BE4 — position and weather

sailwx.info

Track history (hours):
 
Tides and Currents Weather Stations Pressure Air Temp Water Temp Dewpoint Dewpoint Depression Visibility Wind Speed Wind Dir Waves Ship Positions

MSC Vega

Last reported at 2014-Oct-25 12:28 UTC. Time now 2014-Oct-25 12:47 UTC.
Position N 01°16' E 103°46'.

Length 366 m; draft 13.4 m.

Type: Ship (hazmat cat A). MMSI: 636015506.

Date/timePositionNaut miles runAvg speedWind from/ knotsBaromVisibWave heightAir tempDewpointWater temp
2014-Oct-25 12:28N 01°16' E 103°46'0 0.0
2014-Oct-25 11:22N 01°16' E 103°46'0 0.0
2014-Oct-25 10:22N 01°16' E 103°46'0 0.0
2014-Oct-25 09:16N 01°16' E 103°46'0 0.0
2014-Oct-25 08:31N 01°16' E 103°46'0 0.1
2014-Oct-25 07:22N 01°16' E 103°46'0 0.1
2014-Oct-25 06:19N 01°16' E 103°46'0 0.0
2014-Oct-25 05:28N 01°16' E 103°46'0 0.0
2014-Oct-25 04:31N 01°16' E 103°46'0 0.0
2014-Oct-25 03:22N 01°16' E 103°46'0 0.0
2014-Oct-25 02:28N 01°16' E 103°46'0 0.0
2014-Oct-25 01:28N 01°16' E 103°46'0 0.0
2014-Oct-25 00:28N 01°16' E 103°46'0 0.0
2014-Oct-24 23:28N 01°16' E 103°46'0 0.0
2014-Oct-24 22:22N 01°16' E 103°46'0 0.0
2014-Oct-24 21:28N 01°16' E 103°46'0 0.0
2014-Oct-24 20:31N 01°16' E 103°46'0 0.0
2014-Oct-24 19:25N 01°16' E 103°46'1 1.6
2014-Oct-24 18:33N 01°15' E 103°46'8 7.6
2014-Oct-24 17:33N 01°14' E 103°54'1110.9
2014-Oct-24 16:33N 01°16' E 104°04'  
2014-Oct-21 09:23N 22°18' E 114°06'810.1
2014-Oct-21 08:33N 22°21' E 113°57'7 7.4
2014-Oct-21 07:33N 22°27' E 113°53'0 0.5
2014-Oct-21 06:30N 22°28' E 113°53'0 0.0
2014-Oct-21 05:30N 22°28' E 113°53'0 0.0
2014-Oct-21 04:30N 22°28' E 113°53'0 0.0
2014-Oct-21 03:34N 22°28' E 113°53'0 0.0
2014-Oct-21 02:33N 22°28' E 113°53'0 0.0
2014-Oct-21 01:33N 22°28' E 113°53'0 0.0
2014-Oct-21 00:34N 22°28' E 113°53'0 0.0
2014-Oct-20 23:33N 22°28' E 113°53'0 0.0
2014-Oct-20 22:33N 22°28' E 113°53'0 0.0
2014-Oct-20 21:33N 22°28' E 113°53'0 0.0
2014-Oct-20 20:33N 22°28' E 113°53'0 0.0
2014-Oct-20 19:34N 22°28' E 113°53'0 0.0
2014-Oct-20 18:33N 22°28' E 113°53'0 0.0
2014-Oct-20 17:33N 22°28' E 113°53'0 0.0
2014-Oct-20 16:27N 22°28' E 113°53'0 0.0
2014-Oct-20 15:30N 22°28' E 113°53'0 0.0
2014-Oct-20 14:33N 22°28' E 113°53'0 0.0
2014-Oct-20 13:33N 22°28' E 113°53'0 0.2
2014-Oct-20 12:33N 22°27' E 113°53'6 5.9
2014-Oct-20 11:33N 22°22' E 113°55'24 9.9
2014-Oct-20 09:07N 22°09' E 114°17'8 8.8
2014-Oct-20 08:10N 22°11' E 114°26'54 2.4
2014-Oct-19 09:23N 22°16' E 115°24'1719.7
2014-Oct-19 08:33N 22°16' E 115°42'2019.9
2014-Oct-19 07:31N 22°16' E 116°04'6118.7
2014-Oct-19 04:16N 22°51' E 116°58'1217.0
2014-Oct-19 03:33N 22°59' E 117°08'4017.8
2014-Oct-19 01:20N 23°25' E 117°41'1417.9
2014-Oct-19 00:32N 23°34' E 117°52'1817.8
2014-Oct-18 23:33N 23°47' E 118°06'1918.5
2014-Oct-18 22:33N 24°02' E 118°18'1515.0
2014-Oct-18 21:33N 24°16' E 118°14'1313.0
2014-Oct-18 20:33N 24°26' E 118°04'3 2.6
2014-Oct-18 19:32N 24°27' E 118°01'0 0.0
2014-Oct-18 18:14N 24°27' E 118°01'0 0.0
2014-Oct-18 17:14N 24°27' E 118°01'0 0.0
2014-Oct-18 16:32N 24°27' E 118°01'0 0.0
2014-Oct-18 15:20N 24°27' E 118°01'0 0.0
2014-Oct-18 06:08N 24°27' E 118°01'0 0.0
2014-Oct-18 05:20N 24°27' E 118°01'0 0.0
2014-Oct-18 04:32N 24°27' E 118°01'0 0.0
2014-Oct-18 03:33N 24°27' E 118°01'8 8.2
2014-Oct-18 02:33N 24°22' E 118°08'6 6.0
2014-Oct-18 01:33N 24°18' E 118°13'9 9.2
2014-Oct-18 00:33N 24°15' E 118°23'1313.4
2014-Oct-17 23:33N 24°17' E 118°37'3316.5
2014-Oct-17 21:33N 24°29' E 119°11'36018.9
2014-Oct-17 02:27N 29°27' E 122°58'2219.7
2014-Oct-17 01:21N 29°48' E 123°06'3318.2
2014-Oct-16 23:33N 30°19' E 122°54'2120.6
2014-Oct-16 22:33N 30°29' E 122°34'1514.6
2014-Oct-16 21:33N 30°33' E 122°17'12 0.7
2014-Oct-16 04:19N 30°37' E 122°04'2 2.1
2014-Oct-16 03:33N 30°36' E 122°06'9 9.3
2014-Oct-16 02:33N 30°33' E 122°16'8 7.6
2014-Oct-16 01:32N 30°32' E 122°25'7 6.9
2014-Oct-16 00:33N 30°31' E 122°33'713.2
2014-Oct-16 00:00N 30°24' E 122°36'4 2.9 260 / 41022.0 2.2 19.117.420.1
2014-Oct-15 22:33N 30°28' E 122°36'0 0.0
2014-Oct-15 21:27N 30°28' E 122°36'0 0.0
2014-Oct-15 20:21N 30°28' E 122°36'0 0.1
2014-Oct-15 19:21N 30°28' E 122°36'0 0.0
2014-Oct-15 18:33N 30°28' E 122°36'0 0.0
2014-Oct-15 17:15N 30°28' E 122°36'0 0.1
2014-Oct-15 16:33N 30°28' E 122°36'0 0.0
2014-Oct-15 15:21N 30°28' E 122°36'0 0.1
2014-Oct-15 14:33N 30°28' E 122°36'0 0.0
2014-Oct-15 13:33N 30°28' E 122°36'0 0.1
2014-Oct-15 12:33N 30°28' E 122°36'  
Track history (hours):
 
Tides and Currents Weather Stations Pressure Air Temp Water Temp Dewpoint Dewpoint Depression Visibility Wind Speed Wind Dir Waves Ship Positions

MSC Vega

Last reported at 2014-Oct-25 12:28 UTC. Time now 2014-Oct-25 12:47 UTC.
Position N 01°16' E 103°46'.

Length 366 m; draft 13.4 m.

Type: Ship (hazmat cat A). MMSI: 636015506.

Date/timePositionNaut miles runAvg speedWind from/ knotsBaromVisibWave heightAir tempDewpointWater temp
2014-Oct-25 12:28N 01°16' E 103°46'0 0.0
2014-Oct-25 11:22N 01°16' E 103°46'0 0.0
2014-Oct-25 10:22N 01°16' E 103°46'0 0.0
2014-Oct-25 09:16N 01°16' E 103°46'0 0.0
2014-Oct-25 08:31N 01°16' E 103°46'0 0.1
2014-Oct-25 07:22N 01°16' E 103°46'0 0.1
2014-Oct-25 06:19N 01°16' E 103°46'0 0.0
2014-Oct-25 05:28N 01°16' E 103°46'0 0.0
2014-Oct-25 04:31N 01°16' E 103°46'0 0.0
2014-Oct-25 03:22N 01°16' E 103°46'0 0.0
2014-Oct-25 02:28N 01°16' E 103°46'0 0.0
2014-Oct-25 01:28N 01°16' E 103°46'0 0.0
2014-Oct-25 00:28N 01°16' E 103°46'0 0.0
2014-Oct-24 23:28N 01°16' E 103°46'0 0.0
2014-Oct-24 22:22N 01°16' E 103°46'0 0.0
2014-Oct-24 21:28N 01°16' E 103°46'0 0.0
2014-Oct-24 20:31N 01°16' E 103°46'0 0.0
2014-Oct-24 19:25N 01°16' E 103°46'1 1.6
2014-Oct-24 18:33N 01°15' E 103°46'8 7.6
2014-Oct-24 17:33N 01°14' E 103°54'1110.9
2014-Oct-24 16:33N 01°16' E 104°04'  
2014-Oct-21 09:23N 22°18' E 114°06'810.1
2014-Oct-21 08:33N 22°21' E 113°57'7 7.4
2014-Oct-21 07:33N 22°27' E 113°53'0 0.5
2014-Oct-21 06:30N 22°28' E 113°53'0 0.0
2014-Oct-21 05:30N 22°28' E 113°53'0 0.0
2014-Oct-21 04:30N 22°28' E 113°53'0 0.0
2014-Oct-21 03:34N 22°28' E 113°53'0 0.0
2014-Oct-21 02:33N 22°28' E 113°53'0 0.0
2014-Oct-21 01:33N 22°28' E 113°53'0 0.0
2014-Oct-21 00:34N 22°28' E 113°53'0 0.0
2014-Oct-20 23:33N 22°28' E 113°53'0 0.0
2014-Oct-20 22:33N 22°28' E 113°53'0 0.0
2014-Oct-20 21:33N 22°28' E 113°53'0 0.0
2014-Oct-20 20:33N 22°28' E 113°53'0 0.0
2014-Oct-20 19:34N 22°28' E 113°53'0 0.0
2014-Oct-20 18:33N 22°28' E 113°53'0 0.0
2014-Oct-20 17:33N 22°28' E 113°53'0 0.0
2014-Oct-20 16:27N 22°28' E 113°53'0 0.0
2014-Oct-20 15:30N 22°28' E 113°53'0 0.0
2014-Oct-20 14:33N 22°28' E 113°53'0 0.0
2014-Oct-20 13:33N 22°28' E 113°53'0 0.2
2014-Oct-20 12:33N 22°27' E 113°53'6 5.9
2014-Oct-20 11:33N 22°22' E 113°55'24 9.9
2014-Oct-20 09:07N 22°09' E 114°17'8 8.8
2014-Oct-20 08:10N 22°11' E 114°26'54 2.4
2014-Oct-19 09:23N 22°16' E 115°24'1719.7
2014-Oct-19 08:33N 22°16' E 115°42'2019.9
2014-Oct-19 07:31N 22°16' E 116°04'6118.7
2014-Oct-19 04:16N 22°51' E 116°58'1217.0
2014-Oct-19 03:33N 22°59' E 117°08'4017.8
2014-Oct-19 01:20N 23°25' E 117°41'1417.9
2014-Oct-19 00:32N 23°34' E 117°52'1817.8
2014-Oct-18 23:33N 23°47' E 118°06'1918.5
2014-Oct-18 22:33N 24°02' E 118°18'1515.0
2014-Oct-18 21:33N 24°16' E 118°14'1313.0
2014-Oct-18 20:33N 24°26' E 118°04'3 2.6
2014-Oct-18 19:32N 24°27' E 118°01'0 0.0
2014-Oct-18 18:14N 24°27' E 118°01'0 0.0
2014-Oct-18 17:14N 24°27' E 118°01'0 0.0
2014-Oct-18 16:32N 24°27' E 118°01'0 0.0
2014-Oct-18 15:20N 24°27' E 118°01'0 0.0
2014-Oct-18 06:08N 24°27' E 118°01'0 0.0
2014-Oct-18 05:20N 24°27' E 118°01'0 0.0
2014-Oct-18 04:32N 24°27' E 118°01'0 0.0
2014-Oct-18 03:33N 24°27' E 118°01'8 8.2
2014-Oct-18 02:33N 24°22' E 118°08'6 6.0
2014-Oct-18 01:33N 24°18' E 118°13'9 9.2
2014-Oct-18 00:33N 24°15' E 118°23'1313.4
2014-Oct-17 23:33N 24°17' E 118°37'3316.5
2014-Oct-17 21:33N 24°29' E 119°11'36018.9
2014-Oct-17 02:27N 29°27' E 122°58'2219.7
2014-Oct-17 01:21N 29°48' E 123°06'3318.2
2014-Oct-16 23:33N 30°19' E 122°54'2120.6
2014-Oct-16 22:33N 30°29' E 122°34'1514.6
2014-Oct-16 21:33N 30°33' E 122°17'12 0.7
2014-Oct-16 04:19N 30°37' E 122°04'2 2.1
2014-Oct-16 03:33N 30°36' E 122°06'9 9.3
2014-Oct-16 02:33N 30°33' E 122°16'8 7.6
2014-Oct-16 01:32N 30°32' E 122°25'7 6.9
2014-Oct-16 00:33N 30°31' E 122°33'713.2
2014-Oct-16 00:00N 30°24' E 122°36'4 2.9 260 / 41022.0 2.2 19.117.420.1
2014-Oct-15 22:33N 30°28' E 122°36'0 0.0
2014-Oct-15 21:27N 30°28' E 122°36'0 0.0
2014-Oct-15 20:21N 30°28' E 122°36'0 0.1
2014-Oct-15 19:21N 30°28' E 122°36'0 0.0
2014-Oct-15 18:33N 30°28' E 122°36'0 0.0
2014-Oct-15 17:15N 30°28' E 122°36'0 0.1
2014-Oct-15 16:33N 30°28' E 122°36'0 0.0
2014-Oct-15 15:21N 30°28' E 122°36'0 0.1
2014-Oct-15 14:33N 30°28' E 122°36'0 0.0
2014-Oct-15 13:33N 30°28' E 122°36'0 0.1
2014-Oct-15 12:33N 30°28' E 122°36'  

Dump ship's entire track history